createdAt,value
2023-02-24T00:02:00.984Z,5.67
2023-02-24T00:04:31.017Z,7.33
2023-02-24T00:06:59.882Z,5.60
2023-02-24T00:09:30.016Z,6.17
2023-02-24T00:12:02.760Z,5.87
2023-02-24T00:14:33.495Z,5.43
2023-02-24T00:17:01.726Z,5.23
2023-02-24T00:19:32.780Z,6.93
2023-02-24T00:22:00.941Z,5.63
2023-02-24T00:24:29.511Z,7.07
2023-02-24T00:27:01.208Z,5.90
2023-02-24T00:29:32.513Z,6.37
2023-02-24T00:32:01.190Z,4.80
2023-02-24T00:34:30.879Z,7.03
2023-02-24T00:36:59.482Z,5.23
2023-02-24T00:39:33.498Z,6.60
2023-02-24T00:42:05.786Z,5.33
2023-02-24T00:44:35.757Z,6.57
2023-02-24T00:47:06.499Z,5.83
2023-02-24T00:49:35.941Z,6.70
2023-02-24T00:52:04.944Z,5.97
2023-02-24T00:54:36.457Z,6.00
2023-02-24T00:57:08.227Z,6.07
2023-02-24T00:59:36.974Z,6.47
2023-02-24T01:02:07.152Z,5.27
2023-02-24T01:04:35.306Z,5.53
2023-02-24T01:07:03.751Z,5.60
2023-02-24T01:09:33.477Z,5.10
2023-02-24T01:12:33.537Z,6.30
2023-02-24T01:15:05.021Z,5.87
2023-02-24T01:17:32.872Z,7.97
2023-02-24T01:20:16.007Z,7.03
2023-02-24T01:22:44.581Z,7.00
2023-02-24T01:25:13.087Z,7.47
2023-02-24T01:27:41.364Z,6.03
2023-02-24T01:30:16.113Z,6.20
2023-02-24T01:32:46.626Z,7.07
2023-02-24T01:35:15.173Z,6.73
2023-02-24T01:37:43.519Z,8.53
2023-02-24T01:40:21.157Z,7.23
2023-02-24T01:42:49.509Z,8.13
2023-02-24T01:45:22.839Z,6.60
2023-02-24T01:47:51.765Z,5.50
2023-02-24T01:50:23.192Z,6.43
2023-02-24T01:52:56.154Z,7.07
2023-02-24T01:55:32.099Z,5.10
2023-02-24T01:58:03.070Z,5.50
2023-02-24T02:00:37.585Z,6.50
2023-02-24T02:03:12.114Z,6.90
2023-02-24T02:05:41.825Z,7.17
2023-02-24T02:08:11.437Z,5.33
2023-02-24T02:10:44.357Z,6.47
2023-02-24T02:13:14.330Z,7.80
2023-02-24T02:15:57.720Z,9.10
2023-02-24T02:18:33.313Z,9.97
2023-02-24T02:21:27.839Z,7.20
2023-02-24T02:24:20.493Z,6.10
2023-02-24T02:27:07.754Z,8.60
2023-02-24T02:30:05.980Z,8.53
2023-02-24T02:32:53.283Z,9.40
2023-02-24T02:35:26.323Z,11.27
2023-02-24T02:38:00.317Z,10.07
2023-02-24T02:40:37.654Z,6.93
2023-02-24T02:43:14.236Z,10.17
2023-02-24T02:45:48.396Z,7.87
2023-02-24T02:48:20.525Z,7.67
2023-02-24T02:50:53.204Z,7.60
2023-02-24T02:53:27.626Z,6.77
2023-02-24T02:56:01.041Z,6.80
2023-02-24T02:58:35.183Z,9.23
2023-02-24T03:01:07.337Z,6.40
2023-02-24T03:03:39.702Z,7.17
2023-02-24T03:06:13.111Z,8.47
2023-02-24T03:08:45.637Z,6.17
2023-02-24T03:11:16.742Z,6.80
2023-02-24T03:13:49.771Z,6.43
2023-02-24T03:16:19.817Z,6.33
2023-02-24T03:18:54.006Z,7.37
2023-02-24T03:21:29.796Z,8.90
2023-02-24T03:23:57.832Z,6.13
2023-02-24T03:26:30.011Z,7.90
2023-02-24T03:29:04.661Z,6.00
2023-02-24T03:31:39.074Z,6.33
2023-02-24T03:34:13.210Z,6.87
2023-02-24T03:36:43.647Z,4.87
2023-02-24T03:39:13.317Z,4.83
2023-02-24T03:41:47.304Z,5.07
2023-02-24T03:44:15.172Z,5.10
2023-02-24T03:46:43.147Z,5.83
2023-02-24T03:49:14.048Z,7.27
2023-02-24T03:51:57.083Z,5.60
2023-02-24T03:54:42.922Z,5.83
2023-02-24T03:57:29.225Z,6.13
2023-02-24T04:00:25.726Z,7.00
2023-02-24T04:03:07.779Z,5.53
2023-02-24T04:05:47.661Z,4.93
2023-02-24T04:08:20.295Z,5.40
2023-02-24T04:10:53.546Z,7.77
2023-02-24T04:13:34.869Z,5.93
2023-02-24T04:16:10.207Z,5.10
2023-02-24T04:18:40.860Z,4.97
2023-02-24T04:21:09.547Z,4.13
2023-02-24T04:23:43.420Z,4.13
2023-02-24T04:26:15.020Z,4.70
2023-02-24T04:28:44.102Z,4.27
2023-02-24T04:31:17.605Z,5.37
2023-02-24T04:33:50.363Z,3.67
2023-02-24T04:36:18.746Z,4.07
2023-02-24T04:38:48.225Z,3.90
2023-02-24T04:41:21.545Z,4.17
2023-02-24T04:43:50.848Z,5.13
2023-02-24T04:46:19.106Z,4.60
2023-02-24T04:48:47.333Z,4.00
2023-02-24T04:51:15.456Z,6.67
2023-02-24T04:53:43.825Z,4.83
2023-02-24T04:56:13.086Z,4.27
2023-02-24T04:58:42.758Z,5.93
2023-02-24T05:01:12.958Z,5.60
2023-02-24T05:03:43.511Z,16.23
2023-02-24T05:06:16.141Z,4.73
2023-02-24T05:08:44.828Z,4.30
2023-02-24T05:11:17.131Z,4.50
2023-02-24T05:13:46.923Z,4.40
2023-02-24T05:16:16.663Z,4.40
2023-02-24T05:18:45.593Z,4.57
2023-02-24T05:21:32.672Z,3.27
2023-02-24T05:24:06.610Z,5.57
2023-02-24T05:26:38.112Z,6.50
2023-02-24T05:29:07.411Z,6.00
2023-02-24T05:31:37.014Z,4.60
2023-02-24T05:34:07.934Z,7.77
2023-02-24T05:36:39.429Z,4.13
2023-02-24T05:39:10.782Z,4.50
2023-02-24T05:41:42.130Z,3.50
2023-02-24T05:44:13.612Z,7.30
2023-02-24T05:46:44.688Z,6.23
2023-02-24T05:49:15.419Z,4.63
2023-02-24T05:51:54.676Z,4.63
2023-02-24T05:54:25.943Z,4.67
2023-02-24T05:56:57.016Z,3.00
2023-02-24T05:59:25.275Z,3.70
2023-02-24T06:01:54.213Z,4.30
2023-02-24T06:04:39.359Z,3.47
2023-02-24T06:07:13.918Z,4.17
2023-02-24T06:09:44.958Z,5.10
2023-02-24T06:12:15.077Z,6.07
2023-02-24T06:14:43.240Z,7.20
2023-02-24T06:17:11.108Z,3.63
2023-02-24T06:19:41.236Z,3.00
2023-02-24T06:22:13.142Z,4.80
2023-02-24T06:24:44.279Z,4.77
2023-02-24T06:27:17.644Z,7.00
2023-02-24T06:29:50.928Z,5.43
2023-02-24T06:32:19.233Z,4.37
2023-02-24T06:34:47.532Z,4.37
2023-02-24T06:37:16.892Z,4.17
2023-02-24T06:39:44.818Z,22.47
2023-02-24T06:42:13.507Z,5.20
2023-02-24T06:44:42.438Z,3.90
2023-02-24T06:47:14.517Z,3.43
2023-02-24T06:49:42.909Z,5.57
2023-02-24T06:52:18.619Z,4.87
2023-02-24T06:54:49.015Z,3.07
2023-02-24T06:57:16.917Z,4.20
2023-02-24T06:59:46.194Z,3.50
2023-02-24T07:02:17.718Z,3.60
2023-02-24T07:04:45.837Z,5.00
2023-02-24T07:07:15.034Z,5.73
2023-02-24T07:09:45.501Z,6.50
2023-02-24T07:12:20.933Z,6.90
2023-02-24T07:14:50.406Z,5.47
2023-02-24T07:17:20.937Z,23.17
2023-02-24T07:19:48.830Z,4.40
2023-02-24T07:22:25.083Z,5.50
2023-02-24T07:25:00.500Z,5.93
2023-02-24T07:27:28.717Z,4.80
2023-02-24T07:29:56.586Z,3.83
2023-02-24T07:32:26.472Z,4.37
2023-02-24T07:34:54.476Z,4.60
2023-02-24T07:37:24.388Z,6.23
2023-02-24T07:39:52.915Z,5.83
2023-02-24T07:42:20.855Z,6.13
2023-02-24T07:44:49.334Z,10.17
2023-02-24T07:47:17.666Z,5.60
2023-02-24T07:49:46.962Z,6.13
2023-02-24T07:52:16.153Z,5.13
2023-02-24T07:54:44.312Z,4.73
2023-02-24T07:57:14.286Z,4.43
2023-02-24T07:59:47.224Z,8.23
2023-02-24T08:02:15.618Z,8.03
2023-02-24T08:04:50.404Z,4.80
2023-02-24T08:07:24.744Z,5.63
2023-02-24T08:10:14.516Z,4.53
2023-02-24T08:12:47.618Z,9.10
2023-02-24T08:15:22.071Z,7.13
2023-02-24T08:17:49.934Z,5.20
2023-02-24T08:20:25.980Z,5.97
2023-02-24T08:22:55.717Z,7.13
2023-02-24T08:25:31.059Z,5.40
2023-02-24T08:28:08.087Z,5.60
2023-02-24T08:30:40.067Z,6.00
2023-02-24T08:33:10.711Z,4.90
2023-02-24T08:35:44.867Z,6.37
2023-02-24T08:38:17.431Z,5.33
2023-02-24T08:40:55.035Z,5.63
2023-02-24T08:43:33.192Z,4.50
2023-02-24T08:46:12.601Z,5.53
2023-02-24T08:48:42.540Z,5.90
2023-02-24T08:51:15.162Z,5.57
2023-02-24T08:53:46.837Z,4.90
2023-02-24T08:56:24.237Z,4.47
2023-02-24T08:58:57.233Z,6.37
2023-02-24T09:01:27.542Z,5.60
2023-02-24T09:03:58.361Z,4.77
2023-02-24T09:06:37.404Z,9.60
2023-02-24T09:09:18.818Z,6.57
2023-02-24T09:11:48.160Z,6.77
2023-02-24T09:14:26.557Z,14.40
2023-02-24T09:17:07.292Z,6.23
2023-02-24T09:19:58.541Z,6.80
2023-02-24T09:22:32.529Z,7.47
2023-02-24T09:25:21.782Z,5.63
2023-02-24T09:27:56.114Z,6.07
2023-02-24T09:30:51.014Z,9.17
2023-02-24T09:33:22.473Z,4.40
2023-02-24T09:35:53.526Z,6.13
2023-02-24T09:38:46.139Z,6.20
2023-02-24T09:41:34.347Z,7.53
2023-02-24T09:44:07.596Z,5.77
2023-02-24T09:46:53.989Z,6.78
2023-02-24T09:49:25.270Z,5.10
2023-02-24T09:52:00.556Z,7.03
2023-02-24T09:54:33.579Z,6.68
2023-02-24T09:57:09.406Z,8.10
2023-02-24T10:00:01.186Z,5.03
2023-02-24T10:02:44.558Z,10.02
2023-02-24T10:05:27.372Z,7.22
2023-02-24T10:07:57.244Z,6.90
2023-02-24T10:10:29.154Z,8.02
2023-02-24T10:13:13.236Z,5.05
2023-02-24T10:15:59.305Z,7.80
2023-02-24T10:18:32.968Z,5.65
2023-02-24T10:21:07.647Z,5.45
2023-02-24T10:23:56.572Z,5.85
2023-02-24T10:26:32.869Z,5.45
2023-02-24T10:29:09.147Z,7.32
2023-02-24T10:31:45.928Z,5.63
2023-02-24T10:34:20.816Z,10.63
2023-02-24T10:36:50.670Z,8.07
2023-02-24T10:39:25.489Z,6.07
2023-02-24T10:41:58.295Z,6.25
2023-02-24T10:44:36.387Z,7.15
2023-02-24T10:47:12.505Z,10.70
2023-02-24T10:49:57.071Z,9.18
2023-02-24T10:52:50.770Z,8.88
2023-02-24T10:55:39.238Z,9.00
2023-02-24T10:58:15.890Z,7.30
2023-02-24T11:01:01.197Z,5.35
2023-02-24T11:03:42.154Z,6.15
2023-02-24T11:06:30.870Z,5.45
2023-02-24T11:09:19.183Z,6.00
2023-02-24T11:12:06.043Z,9.13
2023-02-24T11:14:57.943Z,7.20
2023-02-24T11:17:27.919Z,8.45
2023-02-24T11:20:01.411Z,7.03
2023-02-24T11:22:33.844Z,7.72
2023-02-24T11:25:06.956Z,6.25
2023-02-24T11:27:35.731Z,6.80
2023-02-24T11:30:15.006Z,7.18
2023-02-24T11:33:01.020Z,6.97
2023-02-24T11:35:35.961Z,9.75
2023-02-24T11:38:17.785Z,6.72
2023-02-24T11:40:49.815Z,6.75
2023-02-24T11:43:22.332Z,6.97
2023-02-24T11:45:56.179Z,5.97
2023-02-24T11:48:32.252Z,7.30
2023-02-24T11:51:03.851Z,7.75
2023-02-24T11:53:36.395Z,6.45
2023-02-24T11:56:11.159Z,6.88
2023-02-24T11:58:45.389Z,5.90
2023-02-24T12:01:18.520Z,7.53
2023-02-24T12:03:57.254Z,7.28
2023-02-24T12:06:31.819Z,6.65
2023-02-24T12:09:07.779Z,7.20
2023-02-24T12:11:45.005Z,7.00
2023-02-24T12:14:31.960Z,8.68
2023-02-24T12:17:07.832Z,8.95
2023-02-24T12:19:51.774Z,11.00
2023-02-24T12:22:19.704Z,9.00
2023-02-24T12:24:51.629Z,12.48
2023-02-24T12:27:36.382Z,6.78
2023-02-24T12:30:48.865Z,7.53
2023-02-24T12:33:32.733Z,7.68
2023-02-24T12:36:12.281Z,7.25
2023-02-24T12:38:51.987Z,8.90
2023-02-24T12:41:36.316Z,9.57
2023-02-24T12:44:17.364Z,8.13
2023-02-24T12:46:50.579Z,11.95
2023-02-24T12:49:30.753Z,7.65
2023-02-24T12:52:10.436Z,9.88
2023-02-24T12:54:48.039Z,11.10
2023-02-24T12:57:27.722Z,8.35
2023-02-24T12:59:58.169Z,6.93
2023-02-24T13:02:37.434Z,8.27
2023-02-24T13:05:16.596Z,8.77
2023-02-24T13:08:02.304Z,8.50
2023-02-24T13:10:43.471Z,7.40
2023-02-24T13:13:17.944Z,11.13
2023-02-24T13:15:53.801Z,8.32
2023-02-24T13:18:26.719Z,9.32
2023-02-24T13:21:05.506Z,9.98
2023-02-24T13:23:35.789Z,10.55
2023-02-24T13:26:05.278Z,9.38
2023-02-24T13:28:36.296Z,9.30
2023-02-24T13:31:07.357Z,9.48
2023-02-24T13:33:39.464Z,9.07
2023-02-24T13:36:21.789Z,9.48
2023-02-24T13:38:52.602Z,9.63
2023-02-24T13:41:37.578Z,9.23
2023-02-24T13:44:23.981Z,11.80
2023-02-24T13:47:09.391Z,14.32
2023-02-24T13:49:47.460Z,12.05
2023-02-24T13:52:27.440Z,9.40
2023-02-24T13:55:30.671Z,9.63
2023-02-24T13:58:10.787Z,11.50
2023-02-24T14:00:53.913Z,10.25
2023-02-24T14:03:25.532Z,11.52
2023-02-24T14:05:54.940Z,11.52
2023-02-24T14:08:26.105Z,11.57
2023-02-24T14:10:58.321Z,11.27
2023-02-24T14:13:29.998Z,13.80
2023-02-24T14:15:59.883Z,12.60
2023-02-24T14:18:30.955Z,11.93
2023-02-24T14:20:59.870Z,13.80
2023-02-24T14:23:29.231Z,10.55
2023-02-24T14:26:01.710Z,11.30
2023-02-24T14:28:32.556Z,11.68
2023-02-24T14:31:03.563Z,11.73
2023-02-24T14:33:34.334Z,12.73
2023-02-24T14:36:02.972Z,10.98
2023-02-24T14:38:34.392Z,10.57
2023-02-24T14:41:05.993Z,11.98
2023-02-24T14:43:33.927Z,10.48
2023-02-24T14:46:06.891Z,11.88
2023-02-24T14:48:35.144Z,10.65
2023-02-24T14:51:06.471Z,13.68
2023-02-24T14:53:37.204Z,13.38
2023-02-24T14:56:07.777Z,12.05
2023-02-24T14:58:43.210Z,11.52
2023-02-24T15:01:21.524Z,10.82
2023-02-24T15:03:53.621Z,14.52
2023-02-24T15:06:28.514Z,14.45
2023-02-24T15:09:00.679Z,20.20
2023-02-24T15:11:32.387Z,15.07
2023-02-24T15:14:03.163Z,19.40
2023-02-24T15:16:38.542Z,16.90
2023-02-24T15:19:06.747Z,15.15
2023-02-24T15:21:40.212Z,18.58
2023-02-24T15:24:19.602Z,15.85
2023-02-24T15:26:55.061Z,16.50
2023-02-24T15:29:26.814Z,17.40
2023-02-24T15:31:56.156Z,16.83
2023-02-24T15:34:27.200Z,19.73
2023-02-24T15:37:00.241Z,13.43
2023-02-24T15:39:31.339Z,14.35
2023-02-24T15:42:10.489Z,14.80
2023-02-24T15:44:39.911Z,15.10
2023-02-24T15:47:23.599Z,17.10
2023-02-24T15:49:51.563Z,15.75
2023-02-24T15:52:24.249Z,17.75
2023-02-24T15:54:52.265Z,19.17
2023-02-24T15:57:21.628Z,20.90
2023-02-24T15:59:49.673Z,13.68
2023-02-24T16:02:20.151Z,14.18
2023-02-24T16:04:51.685Z,18.00
2023-02-24T16:07:22.504Z,15.43
2023-02-24T16:09:53.555Z,19.02
2023-02-24T16:12:25.655Z,16.42
2023-02-24T16:14:55.935Z,16.75
2023-02-24T16:17:31.661Z,24.80
2023-02-24T16:20:00.136Z,22.05
2023-02-24T16:22:28.680Z,17.80
2023-02-24T16:24:56.651Z,17.17
2023-02-24T16:27:27.459Z,16.23
2023-02-24T16:29:55.335Z,17.58
2023-02-24T16:32:25.852Z,16.75
2023-02-24T16:34:54.485Z,16.33
2023-02-24T16:37:23.821Z,15.63
2023-02-24T16:39:53.161Z,15.80
2023-02-24T16:42:21.981Z,17.65
2023-02-24T16:44:51.668Z,17.88
2023-02-24T16:47:22.149Z,16.08
2023-02-24T16:49:50.967Z,17.80
2023-02-24T16:52:19.093Z,19.23
2023-02-24T16:54:48.266Z,22.50
2023-02-24T16:57:16.302Z,32.73
2023-02-24T16:59:44.237Z,29.05
2023-02-24T17:02:20.841Z,26.42
2023-02-24T17:04:48.797Z,25.02
2023-02-24T17:07:19.102Z,19.13
2023-02-24T17:09:50.063Z,19.17
2023-02-24T17:12:22.414Z,20.83
2023-02-24T17:14:50.440Z,18.35
2023-02-24T17:17:20.701Z,21.35
2023-02-24T17:19:52.420Z,20.63
2023-02-24T17:22:22.205Z,19.07
2023-02-24T17:24:50.201Z,18.10
2023-02-24T17:27:18.104Z,20.13
2023-02-24T17:29:45.946Z,28.60
2023-02-24T17:32:14.004Z,68.00
2023-02-24T17:34:43.412Z,19.10
2023-02-24T17:37:11.273Z,18.13
2023-02-24T17:39:39.170Z,22.80
2023-02-24T17:42:07.138Z,20.07
2023-02-24T17:44:36.517Z,21.93
2023-02-24T17:47:05.176Z,21.17
2023-02-24T17:49:33.720Z,18.97
2023-02-24T17:52:05.881Z,21.95
2023-02-24T17:54:34.354Z,22.50
2023-02-24T17:57:02.366Z,23.17
2023-02-24T17:59:30.286Z,22.23
2023-02-24T18:01:58.206Z,20.60
2023-02-24T18:04:27.518Z,16.90
2023-02-24T18:06:55.648Z,15.90
2023-02-24T18:09:25.059Z,17.73
2023-02-24T18:11:53.130Z,16.37
2023-02-24T18:14:21.084Z,19.10
2023-02-24T18:16:49.012Z,16.07
2023-02-24T18:19:16.909Z,15.63
2023-02-24T18:21:45.331Z,14.60
2023-02-24T18:24:13.324Z,15.87
2023-02-24T18:26:42.666Z,16.37
2023-02-24T18:29:10.570Z,15.07
2023-02-24T18:31:38.691Z,17.30
2023-02-24T18:34:06.780Z,16.80
2023-02-24T18:36:34.918Z,19.93
2023-02-24T18:39:02.968Z,20.60
2023-02-24T18:41:31.021Z,14.97
2023-02-24T18:44:00.372Z,14.20
2023-02-24T18:46:28.898Z,14.97
2023-02-24T18:48:57.623Z,20.10
2023-02-24T18:51:28.932Z,18.90
2023-02-24T18:53:58.931Z,16.37
2023-02-24T18:56:28.952Z,16.07
2023-02-24T18:58:58.509Z,16.53
2023-02-24T19:01:32.224Z,16.20
2023-02-24T19:04:00.794Z,17.53
2023-02-24T19:06:31.722Z,14.57
2023-02-24T19:09:02.126Z,15.97
2023-02-24T19:11:30.925Z,18.40
2023-02-24T19:14:00.450Z,16.17
2023-02-24T19:16:29.966Z,15.50
2023-02-24T19:18:59.889Z,15.30
2023-02-24T19:21:30.191Z,16.77
2023-02-24T19:24:00.719Z,18.30
2023-02-24T19:26:29.426Z,12.70
2023-02-24T19:28:58.796Z,18.43
2023-02-24T19:31:30.372Z,18.27
2023-02-24T19:34:00.378Z,16.30
2023-02-24T19:36:28.989Z,19.20
2023-02-24T19:38:56.989Z,15.13
2023-02-24T19:41:25.225Z,18.40
2023-02-24T19:43:53.469Z,15.50
2023-02-24T19:46:22.035Z,18.07
2023-02-24T19:48:51.572Z,14.40
2023-02-24T19:51:22.864Z,17.80
2023-02-24T19:53:53.541Z,17.60
2023-02-24T19:56:24.107Z,21.67
2023-02-24T19:58:54.544Z,17.17
2023-02-24T20:01:23.850Z,16.40
2023-02-24T20:03:56.215Z,15.87
2023-02-24T20:06:26.653Z,26.33
2023-02-24T20:08:55.185Z,18.17
2023-02-24T20:11:24.558Z,16.67
2023-02-24T20:13:53.529Z,18.53
2023-02-24T20:16:25.020Z,15.37
2023-02-24T20:18:56.207Z,16.13
2023-02-24T20:21:24.362Z,20.20
2023-02-24T20:23:52.445Z,15.27
2023-02-24T20:26:21.572Z,16.93
2023-02-24T20:28:49.835Z,19.17
2023-02-24T20:31:19.588Z,15.63
2023-02-24T20:33:49.030Z,14.60
2023-02-24T20:36:21.383Z,13.60
2023-02-24T20:38:49.971Z,18.40
2023-02-24T20:41:18.783Z,14.47
2023-02-24T20:43:46.795Z,15.60
2023-02-24T20:46:16.732Z,18.23
2023-02-24T20:48:45.654Z,17.93
2023-02-24T20:51:13.773Z,13.63
2023-02-24T20:53:56.122Z,13.93
2023-02-24T20:56:26.456Z,13.03
2023-02-24T20:58:59.935Z,14.07
2023-02-24T21:01:28.439Z,14.37
2023-02-24T21:03:56.548Z,12.50
2023-02-24T21:06:25.041Z,12.63
2023-02-24T21:08:54.683Z,13.00
2023-02-24T21:11:23.087Z,12.03
2023-02-24T21:13:52.499Z,13.07
2023-02-24T21:16:21.818Z,13.30
2023-02-24T21:18:51.601Z,16.17
2023-02-24T21:21:20.448Z,15.57
2023-02-24T21:23:48.910Z,14.00
2023-02-24T21:26:19.145Z,14.40
2023-02-24T21:28:47.591Z,14.77
2023-02-24T21:31:17.761Z,17.17
2023-02-24T21:33:45.821Z,16.33
2023-02-24T21:36:15.873Z,16.03
2023-02-24T21:38:43.776Z,14.83
2023-02-24T21:41:15.364Z,13.43
2023-02-24T21:43:45.168Z,16.43
2023-02-24T21:46:15.530Z,15.23
2023-02-24T21:48:43.537Z,12.67
2023-02-24T21:51:13.705Z,15.37
2023-02-24T21:53:44.437Z,14.00
2023-02-24T21:56:16.533Z,13.50
2023-02-24T21:58:48.485Z,12.93
2023-02-24T22:01:20.609Z,12.73
2023-02-24T22:03:48.758Z,13.93
2023-02-24T22:06:18.457Z,13.47
2023-02-24T22:08:46.348Z,12.50
2023-02-24T22:11:15.751Z,13.13
2023-02-24T22:13:46.236Z,11.97
2023-02-24T22:16:16.335Z,13.93
2023-02-24T22:18:44.255Z,13.37
2023-02-24T22:21:17.213Z,11.90
2023-02-24T22:23:46.101Z,12.00
2023-02-24T22:26:15.053Z,12.00
2023-02-24T22:28:46.877Z,13.87
2023-02-24T22:31:17.889Z,13.33
2023-02-24T22:33:46.720Z,16.17
2023-02-24T22:36:16.993Z,12.90
2023-02-24T22:38:46.707Z,12.23
2023-02-24T22:41:16.967Z,13.43
2023-02-24T22:43:46.856Z,16.07
2023-02-24T22:46:16.491Z,17.43
2023-02-24T22:48:44.626Z,17.27
2023-02-24T22:51:14.301Z,17.90
2023-02-24T22:53:44.085Z,18.73
2023-02-24T22:56:14.194Z,17.00
2023-02-24T22:58:43.511Z,17.77
2023-02-24T23:01:14.741Z,19.17
2023-02-24T23:03:43.631Z,16.30
2023-02-24T23:06:14.008Z,14.87
2023-02-24T23:08:43.921Z,16.37
2023-02-24T23:11:14.167Z,12.70
2023-02-24T23:13:44.924Z,17.17
2023-02-24T23:16:17.250Z,15.13
2023-02-24T23:18:50.631Z,13.63
2023-02-24T23:21:20.887Z,13.70
2023-02-24T23:23:48.843Z,13.77
2023-02-24T23:26:18.157Z,14.87
2023-02-24T23:28:46.239Z,11.70
2023-02-24T23:31:21.441Z,14.83
2023-02-24T23:33:50.531Z,15.10
2023-02-24T23:36:19.138Z,13.70
2023-02-24T23:38:47.238Z,14.00
2023-02-24T23:41:15.626Z,16.13
2023-02-24T23:43:43.481Z,12.10
2023-02-24T23:46:13.565Z,14.57
2023-02-24T23:48:43.104Z,15.20
2023-02-24T23:51:14.491Z,13.10
2023-02-24T23:53:44.903Z,15.50
2023-02-24T23:56:15.959Z,15.90
2023-02-24T23:58:44.110Z,14.83
